Andenes, Norway

12:21 PM CEST on June 25, 2017 (GMT +0200)
Andoya Air Base | | Change Station

Elev 46 ft 69.30 °N, 16.15 °E | Updated 31 minutes ago

Light Rain Showers
Light Showers Rain
48 °F
Feels Like 48 °F
N
14
Wind Variable Wind from NE

Today
High -- | Low -- °F
--% Chance of Precip.
Yesterday
High -- | Low -- °F
Precip. -- in
Pressure 29.39 in
Visibility 5.0 miles
Clouds Mostly Cloudy 700 ft
Dew Point 45 °F
Humidity 87%
Rainfall 0.00 in
Snow Depth Not available.
1:00 AM 1:00 AM
Waxing Crescent, 3% visible
METAR ENAN 250950Z 04012KT 8000 -SHRA BKN007 09/07 Q0995
Pressure 29.39 in
Visibility 5.0 miles
Clouds Mostly Cloudy 700 ft
Dew Point 45 °F
Humidity 87%
Rainfall 0.00 in
Snow Depth Not available.
1:00 AM 1:00 AM
Waxing Crescent, 3% visible
METAR ENAN 250950Z 04012KT 8000 -SHRA BKN007 09/07 Q0995

Get Severe Weather Alerts

Thanks for signing up!

Be on the lookout for a verification email in your inbox.

You'll start receiving the daily forecast at 6 AM.

×

10-Day Weather Forecast

×

Almanac

Astronomy

Jun. 25, 2017 Rise Set
Actual Time
Civil Twilight
Nautical Twilight
Astronomical Twilight
Moon
Length of Visible Light
Length of Day
Tomorrow will be .
, % of the Moon is Illuminated

Today's Extremes

Country Highs Country Lows

Community

WunderPhotos

Category 6

Welcome to Category 6. This is the collective home for Weather Underground's featured writeups by Dr. Jeff Masters (right), Bob Henson (left), Chris Burt, and other regular contributors.

Nearby

Air Quality

  Air Quality AQ Index Pollutant
Not available.

Snow Depth

Station Depth Elevation

Earthquake Activity

City Distance Mag. Time & Date
Minimum magnitude displayed is 2.5.

Coastal Water Temperatures

Place Temperature

Stations

Nearby Weather Stations

Station Location Temp. Windchill Dew Point Humidity Wind Precip. Elev Updated Type